This is the latest recevied weather packets stored in our database for station/object iz1wiy-3. If no packets are shown the sender has not sent any weather packets the latest 1 day(s).
| Time | Temp. | Humidity | Pressure | Rain* | Wind** | Luminosity | Snow |
|---|---|---|---|---|---|---|---|
| 1778102824 | 13.33° C | 90% | 1013.2 hPa | 0 mm | - | - | - |
| 1778102044 | 13.33° C | 89% | 1013.2 hPa | 0 mm | - | - | - |
| 1778101204 | 12.78° C | 89% | 1013.2 hPa | 0 mm | - | - | - |
| 1778097844 | 13.89° C | 86% | 1012.8 hPa | 0 mm | - | - | - |
| 1778095086 | 15.56° C | 85% | 1012.2 hPa | 0 mm | - | - | - |
| 1778092204 | 16.67° C | 78% | 1011.5 hPa | 0 mm | - | - | - |
| 1778090764 | 17.22° C | 75% | 1011.3 hPa | 0 mm | - | - | - |
| 1778088244 | 17.78° C | 76% | 1011 hPa | 0 mm | - | - | - |
| 1778087404 | 17.78° C | 75% | 1010.9 hPa | 0 mm | - | - | - |
| 1778085124 | 17.78° C | 76% | 1010.9 hPa | 0 mm | - | - | - |
| 1778084465 | 17.78° C | 76% | 1010.9 hPa | 0 mm | - | - | - |
| 1778083327 | 18.33° C | 76% | 1010.9 hPa | 0 mm | - | - | - |
| 1778083084 | 18.33° C | 77% | 1010.9 hPa | 0 mm | - | - | - |
| 1778082844 | 18.33° C | 76% | 1010.9 hPa | 0 mm | - | - | - |
| 1778081945 | 18.33° C | 77% | 1010.8 hPa | 0 mm | - | - | - |
| 1778079843 | 18.89° C | 75% | 1010.7 hPa | 0 mm | - | - | - |
| 1778077204 | 19.44° C | 75% | 1010.5 hPa | 0 mm | - | - | - |
| 1778074624 | 18.89° C | 78% | 1010.7 hPa | 0 mm | - | - | - |
| 1778072706 | 18.89° C | 79% | 1010.9 hPa | 0 mm | - | - | - |
| 1778070724 | 19.44° C | 74% | 1010.9 hPa | 0 mm | - | - | - |
| 1778070544 | 19.44° C | 74% | 1010.9 hPa | 0 mm | - | - | - |
| 1778069944 | 19.44° C | 70% | 1010.9 hPa | 0 mm | - | - | - |
| 1778069464 | 19.44° C | 71% | 1010.9 hPa | 0 mm | - | - | - |
| 1778067424 | 18.89° C | 79% | 1010.8 hPa | 0 mm | - | - | - |
| 1778064124 | 18.33° C | 82% | 1010.6 hPa | 0 mm | - | - | - |
* Rain latest hour (hover to see other rain measurements)
** Current wind speed in m/s (hover to see current wind gust speed)